createdAt,value
2022-12-26T00:00:39.602Z,100918.28
2022-12-26T00:03:24.127Z,100907.09
2022-12-26T00:05:57.893Z,100925.53
2022-12-26T02:07:12.374Z,100933.16
2022-12-26T02:09:44.678Z,100932.44
2022-12-26T02:12:35.720Z,100949.16
2022-12-26T02:15:08.938Z,100937.84
2022-12-26T02:17:40.594Z,100938.72
2022-12-26T02:20:22.156Z,100942.13
2022-12-26T02:23:23.709Z,100941.81
2022-12-26T02:26:32.912Z,100948.53
2022-12-26T02:29:33.605Z,100933.91
2022-12-26T02:32:13.569Z,100933.22
2022-12-26T02:34:52.472Z,100941.56
2022-12-26T02:37:33.215Z,100954.59
2022-12-26T02:40:24.849Z,100935.31
2022-12-26T02:43:05.376Z,100930.13
2022-12-26T02:45:58.675Z,100931.00
2022-12-26T02:48:44.708Z,100934.19
2022-12-26T02:51:40.284Z,100943.28
2022-12-26T02:54:49.268Z,100943.53
2022-12-26T02:57:42.888Z,100923.97
2022-12-26T03:00:34.920Z,100944.13
2022-12-26T03:03:24.856Z,100957.91
2022-12-26T03:06:16.886Z,100922.88
2022-12-26T03:09:08.452Z,100946.84
2022-12-26T03:11:58.556Z,100939.13
2022-12-26T03:14:34.985Z,100943.66
2022-12-26T03:17:22.446Z,100939.97
2022-12-26T03:20:04.107Z,100932.09
2022-12-26T03:22:46.808Z,100943.91
2022-12-26T03:25:38.998Z,100935.53
2022-12-26T03:28:19.048Z,100938.09
2022-12-26T03:30:53.395Z,100931.72
2022-12-26T03:33:52.785Z,100938.00
2022-12-26T03:36:42.044Z,100939.59
2022-12-26T03:39:46.804Z,100931.47
2022-12-26T03:42:37.719Z,100940.81
2022-12-26T03:45:33.016Z,100950.66
2022-12-26T03:48:35.680Z,100924.84
2022-12-26T03:51:29.350Z,100926.94
2022-12-26T03:54:19.728Z,100943.03
2022-12-26T03:57:14.274Z,100931.75
2022-12-26T04:00:06.988Z,100944.28
2022-12-26T04:02:54.997Z,100925.09
2022-12-26T04:05:40.854Z,100919.34
2022-12-26T04:08:35.811Z,100916.88
2022-12-26T04:11:23.683Z,100933.72
2022-12-26T04:14:31.802Z,100923.63
2022-12-26T04:17:22.691Z,100943.69
2022-12-26T04:20:01.834Z,100937.16
2022-12-26T04:22:58.893Z,100950.59
2022-12-26T04:25:50.199Z,100936.69
2022-12-26T04:28:38.204Z,100943.69
2022-12-26T04:34:40.073Z,100945.41
2022-12-26T04:37:33.769Z,100940.63
2022-12-26T04:40:21.587Z,100931.63
2022-12-26T04:43:49.261Z,100940.00
2022-12-26T04:45:58.768Z,100935.56
2022-12-26T04:48:51.349Z,100942.22
2022-12-26T04:51:20.661Z,100945.03
2022-12-26T04:53:49.016Z,100918.72
2022-12-26T04:56:17.409Z,100926.25
2022-12-26T04:58:45.932Z,100915.53
2022-12-26T05:01:31.307Z,100915.41
2022-12-26T05:04:21.006Z,100912.59
2022-12-26T05:07:09.887Z,100909.75
2022-12-26T05:09:41.024Z,100907.91
2022-12-26T05:12:11.365Z,100926.09
2022-12-26T05:14:39.609Z,100920.94
2022-12-26T05:17:26.249Z,100944.06
2022-12-26T05:20:13.471Z,100921.19
2022-12-26T05:23:02.341Z,100944.91
2022-12-26T05:25:50.316Z,100927.94
2022-12-26T05:28:36.736Z,100932.16
2022-12-26T05:31:05.853Z,100937.41
2022-12-26T05:33:51.640Z,100928.91
2022-12-26T05:36:23.071Z,100925.38
2022-12-26T05:38:51.633Z,100938.75
2022-12-26T05:45:28.045Z,100932.16
2022-12-26T05:48:02.593Z,100922.31
2022-12-26T05:50:31.264Z,100925.63
2022-12-26T05:53:01.419Z,100917.50
2022-12-26T05:55:29.676Z,100914.31
2022-12-26T05:57:58.387Z,100920.19
2022-12-26T06:00:30.439Z,100912.81
2022-12-26T06:03:02.386Z,100914.81
2022-12-26T06:05:30.747Z,100918.63
2022-12-26T06:08:00.470Z,100918.97
2022-12-26T06:10:29.892Z,100913.72
2022-12-26T06:12:59.368Z,100930.28
2022-12-26T06:15:27.785Z,100910.25
2022-12-26T06:17:56.941Z,100914.81
2022-12-26T06:20:25.343Z,100920.59
2022-12-26T06:22:53.627Z,100910.88
2022-12-26T06:25:24.847Z,100917.03
2022-12-26T06:27:53.114Z,100923.41
2022-12-26T06:30:22.829Z,100905.59
2022-12-26T06:32:51.118Z,100912.84
2022-12-26T06:35:19.517Z,100916.75
2022-12-26T06:37:47.671Z,100920.72
2022-12-26T06:40:15.968Z,100928.31
2022-12-26T06:42:45.771Z,100925.75
2022-12-26T06:45:13.921Z,100916.28
2022-12-26T06:47:42.654Z,100938.66
2022-12-26T06:50:11.408Z,100936.06
2022-12-26T06:52:39.704Z,100922.78
2022-12-26T06:55:08.733Z,100925.13
2022-12-26T06:58:38.130Z,100916.16
2022-12-26T07:01:09.587Z,100926.00
2022-12-26T07:03:38.217Z,100939.50
2022-12-26T07:06:08.097Z,100946.28
2022-12-26T07:08:36.520Z,100966.53
2022-12-26T07:11:05.701Z,100951.69
2022-12-26T07:13:34.330Z,100957.44
2022-12-26T07:16:02.903Z,100947.75
2022-12-26T07:18:32.806Z,100942.19
2022-12-26T07:21:04.047Z,100930.53
2022-12-26T07:23:35.441Z,100944.91
2022-12-26T07:26:04.374Z,100950.34
2022-12-26T07:28:33.557Z,100955.75
2022-12-26T07:31:01.851Z,100947.25
2022-12-26T07:33:30.775Z,100939.13
2022-12-26T07:36:02.816Z,100943.91
2022-12-26T07:38:31.368Z,100941.09
2022-12-26T07:41:20.879Z,100957.22
2022-12-26T07:43:49.242Z,100967.66
2022-12-26T07:46:20.867Z,100953.88
2022-12-26T07:48:49.776Z,100951.66
2022-12-26T07:51:22.681Z,100948.59
2022-12-26T07:53:51.491Z,100963.97
2022-12-26T07:56:23.921Z,100943.28
2022-12-26T07:58:53.454Z,100941.94
2022-12-26T08:01:48.757Z,100937.13
2022-12-26T08:04:54.646Z,100952.88
2022-12-26T08:07:48.603Z,100948.09
2022-12-26T08:10:19.919Z,100940.34
2022-12-26T08:12:51.740Z,100955.59
2022-12-26T08:15:24.299Z,100978.59
2022-12-26T08:17:52.986Z,100970.84
2022-12-26T08:20:38.306Z,100963.34
2022-12-26T08:34:06.697Z,101007.84
2022-12-26T10:09:40.315Z,101275.72
2022-12-26T10:12:38.550Z,101281.13
2022-12-26T10:21:50.677Z,101292.56
2022-12-26T10:24:36.481Z,101294.84
2022-12-26T10:28:08.456Z,101310.81
2022-12-26T10:31:07.603Z,101312.69
2022-12-26T10:33:55.759Z,101304.69
2022-12-26T10:36:35.236Z,101318.41
2022-12-26T10:46:40.425Z,101347.34
2022-12-26T10:49:15.104Z,101373.56
2022-12-26T10:51:53.422Z,101358.63
2022-12-26T10:54:22.736Z,101376.28
2022-12-26T10:56:54.476Z,101379.94
2022-12-26T10:59:24.869Z,101379.78
2022-12-26T11:02:15.453Z,101369.59
2022-12-26T11:05:16.103Z,101359.13
2022-12-26T11:07:53.563Z,101349.09
2022-12-26T11:10:27.036Z,101355.25
2022-12-26T11:12:57.880Z,101360.03
2022-12-26T11:15:35.978Z,101377.41
2022-12-26T11:18:24.088Z,101373.63
2022-12-26T11:20:55.298Z,101387.38
2022-12-26T11:23:26.747Z,101386.22
2022-12-26T11:25:56.623Z,101396.13
2022-12-26T11:28:31.970Z,101394.69
2022-12-26T11:31:01.450Z,101397.31
2022-12-26T11:33:34.943Z,101407.56
2022-12-26T11:36:09.223Z,101409.97
2022-12-26T11:38:51.218Z,101409.09
2022-12-26T11:41:33.742Z,101426.84
2022-12-26T11:44:17.293Z,101393.53
2022-12-26T11:46:54.152Z,101406.69
2022-12-26T11:49:30.347Z,101403.94
2022-12-26T11:52:07.565Z,101420.38
2022-12-26T11:54:38.554Z,101423.53
2022-12-26T11:57:44.588Z,101414.31
2022-12-26T12:00:27.772Z,101427.84
2022-12-26T12:02:56.133Z,101411.09
2022-12-26T12:06:10.700Z,101408.22
2022-12-26T12:09:06.055Z,101410.13
2022-12-26T12:12:20.710Z,101414.47
2022-12-26T12:15:03.279Z,101426.41
2022-12-26T12:21:18.862Z,101420.53
2022-12-26T12:24:40.248Z,101448.00
2022-12-26T12:27:22.296Z,101447.34
2022-12-26T12:30:21.434Z,101447.53
2022-12-26T12:33:05.168Z,101431.50
2022-12-26T12:35:59.478Z,101438.84
2022-12-26T12:38:34.693Z,101437.47
2022-12-26T12:41:17.317Z,101453.09
2022-12-26T12:43:54.393Z,101458.88
2022-12-26T12:46:31.295Z,101458.75
2022-12-26T12:49:14.979Z,101475.06
2022-12-26T12:51:53.433Z,101482.28
2022-12-26T12:54:55.290Z,101484.53
2022-12-26T12:57:29.383Z,101481.72
2022-12-26T13:00:12.607Z,101479.13
2022-12-26T13:02:47.273Z,101470.97
2022-12-26T13:05:29.362Z,101473.25
2022-12-26T13:08:03.797Z,101475.06
2022-12-26T13:10:34.531Z,101493.97
2022-12-26T13:13:13.055Z,101480.50
2022-12-26T13:15:46.031Z,101490.22
2022-12-26T13:18:18.109Z,101486.69
2022-12-26T13:20:50.112Z,101504.59
2022-12-26T13:23:47.003Z,101504.34
2022-12-26T13:26:18.548Z,101498.34
2022-12-26T13:28:59.916Z,101504.25
2022-12-26T13:31:34.260Z,101493.31
2022-12-26T13:34:06.455Z,101522.78
2022-12-26T13:36:45.334Z,101511.59
2022-12-26T13:39:37.996Z,101510.72
2022-12-26T13:42:40.973Z,101502.16
2022-12-26T13:45:46.674Z,101529.00
2022-12-26T13:49:02.476Z,101524.50
2022-12-26T13:51:46.822Z,101524.19
2022-12-26T13:54:15.990Z,101520.16
2022-12-26T13:57:20.415Z,101542.59
2022-12-26T14:00:17.692Z,101539.91
2022-12-26T14:03:30.311Z,101540.28
2022-12-26T14:06:43.113Z,101546.16
2022-12-26T14:09:23.035Z,101552.22
2022-12-26T14:12:22.957Z,101538.34
2022-12-26T14:15:06.628Z,101551.84
2022-12-26T14:17:48.210Z,101550.00
2022-12-26T14:20:32.898Z,101548.53
2022-12-26T14:23:20.373Z,101564.25
2022-12-26T14:25:56.001Z,101576.00
2022-12-26T14:28:30.694Z,101578.38
2022-12-26T14:31:12.484Z,101585.63
2022-12-26T14:33:47.480Z,101575.97
2022-12-26T14:36:34.113Z,101587.31
2022-12-26T14:39:13.505Z,101582.25
2022-12-26T14:42:39.098Z,101596.50
2022-12-26T14:45:44.002Z,101585.00
2022-12-26T14:48:48.969Z,101602.66
2022-12-26T14:51:34.866Z,101600.50
2022-12-26T14:54:37.631Z,101599.81
2022-12-26T14:57:47.547Z,101616.22
2022-12-26T15:00:47.810Z,101604.25
2022-12-26T15:03:32.889Z,101625.16
2022-12-26T15:06:32.278Z,101633.25
2022-12-26T15:09:24.231Z,101627.84
2022-12-26T15:12:23.742Z,101620.34
2022-12-26T15:15:18.816Z,101637.09
2022-12-26T15:18:05.463Z,101644.28
2022-12-26T15:21:05.293Z,101620.97
2022-12-26T15:24:34.257Z,101634.66
2022-12-26T15:27:49.984Z,101639.91
2022-12-26T15:30:21.853Z,101646.41
2022-12-26T15:33:02.565Z,101624.53
2022-12-26T15:35:36.120Z,101632.44
2022-12-26T15:38:27.430Z,101662.56
2022-12-26T15:41:11.410Z,101656.50
2022-12-26T15:44:09.384Z,101669.13
2022-12-26T15:46:45.514Z,101671.91
2022-12-26T15:49:30.818Z,101662.69
2022-12-26T15:52:11.524Z,101657.56
2022-12-26T15:55:07.164Z,101694.56
2022-12-26T15:57:47.505Z,101689.38
2022-12-26T16:00:22.251Z,101671.25
2022-12-26T16:03:04.721Z,101685.31
2022-12-26T16:05:41.025Z,101693.13
2022-12-26T16:08:56.716Z,101687.41
2022-12-26T16:11:27.087Z,101679.75
2022-12-26T16:14:16.652Z,101670.28
2022-12-26T16:16:45.003Z,101691.56
2022-12-26T16:19:19.283Z,101680.34
2022-12-26T16:22:10.466Z,101714.06
2022-12-26T16:24:41.185Z,101681.84
2022-12-26T16:27:19.884Z,101691.47
2022-12-26T16:29:54.906Z,101681.94
2022-12-26T16:32:32.174Z,101694.50
2022-12-26T16:35:03.804Z,101678.94
2022-12-26T16:37:53.887Z,101683.38
2022-12-26T16:40:35.159Z,101704.31
2022-12-26T16:43:06.224Z,101703.97
2022-12-26T16:45:37.025Z,101708.84
2022-12-26T16:48:08.506Z,101712.47
2022-12-26T16:50:51.318Z,101697.97
2022-12-26T16:56:38.463Z,101712.81
2022-12-26T16:59:17.309Z,101697.25
2022-12-26T17:01:50.974Z,101726.09
2022-12-26T17:04:22.836Z,101699.34
2022-12-26T17:06:54.925Z,101709.91
2022-12-26T17:09:30.566Z,101727.56
2022-12-26T17:12:10.816Z,101717.28
2022-12-26T17:14:43.266Z,101727.28
2022-12-26T17:17:33.615Z,101736.72
2022-12-26T17:20:33.507Z,101739.84
2022-12-26T17:23:01.739Z,101739.94
2022-12-26T17:25:33.852Z,101731.56
2022-12-26T17:28:24.680Z,101728.22
2022-12-26T17:30:57.537Z,101748.16
2022-12-26T17:37:32.719Z,101736.97
2022-12-26T17:40:29.930Z,101736.16
2022-12-26T17:43:07.645Z,101759.72
2022-12-26T17:45:38.889Z,101762.59
2022-12-26T17:48:24.547Z,101755.84
2022-12-26T17:50:59.635Z,101767.16
2022-12-26T17:53:31.564Z,101752.38
2022-12-26T17:56:02.169Z,101750.06
2022-12-26T17:58:34.981Z,101776.50
2022-12-26T18:01:03.914Z,101781.19
2022-12-26T18:06:19.910Z,101781.31
2022-12-26T18:08:48.437Z,101776.13
2022-12-26T18:11:16.939Z,101783.25
2022-12-26T18:13:51.498Z,101785.13
2022-12-26T18:16:25.170Z,101795.81
2022-12-26T18:18:53.267Z,101788.94
2022-12-26T18:21:21.336Z,101798.59
2022-12-26T18:23:49.628Z,101812.03
2022-12-26T18:26:25.437Z,101807.69
2022-12-26T18:28:55.554Z,101814.63
2022-12-26T18:31:24.372Z,101807.81
2022-12-26T18:33:53.343Z,101801.44
2022-12-26T18:36:23.444Z,101808.47
2022-12-26T18:38:53.179Z,101816.38
2022-12-26T18:41:24.122Z,101809.50
2022-12-26T18:43:54.541Z,101824.44
2022-12-26T18:46:25.580Z,101833.22
2022-12-26T18:48:59.810Z,101824.31
2022-12-26T18:51:29.213Z,101834.13
2022-12-26T18:53:57.435Z,101831.44
2022-12-26T18:56:26.695Z,101832.28
2022-12-26T18:58:58.031Z,101840.34
2022-12-26T19:01:28.051Z,101844.16
2022-12-26T19:03:58.569Z,101853.31
2022-12-26T19:06:35.411Z,101861.06
2022-12-26T19:09:03.539Z,101845.47
2022-12-26T19:11:34.653Z,101850.63
2022-12-26T19:14:02.926Z,101849.84
2022-12-26T19:16:33.898Z,101839.31
2022-12-26T19:19:04.814Z,101844.53
2022-12-26T19:21:32.901Z,101857.75
2022-12-26T19:24:08.828Z,101854.34
2022-12-26T19:26:36.939Z,101865.75
2022-12-26T19:29:05.205Z,101876.44
2022-12-26T19:31:34.955Z,101872.16
2022-12-26T19:34:03.328Z,101881.09
2022-12-26T19:36:32.287Z,101853.09
2022-12-26T19:39:02.687Z,101862.41
2022-12-26T19:41:35.063Z,101867.00
2022-12-26T19:44:06.461Z,101876.75
2022-12-26T19:46:35.939Z,101870.00
2022-12-26T19:49:04.996Z,101869.13
2022-12-26T19:51:33.419Z,101884.75
2022-12-26T19:54:01.807Z,101889.94
2022-12-26T19:56:30.261Z,101874.78
2022-12-26T19:58:58.928Z,101882.84
2022-12-26T20:01:32.079Z,101878.63
2022-12-26T20:04:04.010Z,101881.25
2022-12-26T20:06:35.039Z,101874.38
2022-12-26T20:09:06.882Z,101876.97
2022-12-26T20:11:37.662Z,101877.19
2022-12-26T20:14:11.640Z,101889.47
2022-12-26T20:17:04.925Z,101887.97
2022-12-26T20:19:29.796Z,101884.31
2022-12-26T20:21:59.383Z,101884.47
2022-12-26T20:24:35.010Z,101884.47
2022-12-26T20:27:08.865Z,101888.09
2022-12-26T20:29:36.708Z,101888.09
2022-12-26T20:32:04.889Z,101892.78
2022-12-26T20:34:37.747Z,101886.00
2022-12-26T20:37:05.830Z,101888.94
2022-12-26T20:39:36.654Z,101896.13
2022-12-26T20:42:04.885Z,101894.53
2022-12-26T20:44:33.135Z,101900.47
2022-12-26T20:47:01.418Z,101913.63
2022-12-26T20:49:38.849Z,101896.84
2022-12-26T20:52:08.360Z,101902.88
2022-12-26T20:54:36.283Z,101894.06
2022-12-26T20:57:04.500Z,101916.09
2022-12-26T20:59:40.323Z,101911.09
2022-12-26T21:02:10.460Z,101925.28
2022-12-26T21:04:38.743Z,101914.88
2022-12-26T21:07:08.408Z,101912.63
2022-12-26T21:09:40.988Z,101929.28
2022-12-26T21:12:14.178Z,101932.03
2022-12-26T21:14:42.365Z,101940.16
2022-12-26T21:17:10.491Z,101933.03
2022-12-26T21:19:43.412Z,101925.34
2022-12-26T21:22:12.935Z,101940.38
2022-12-26T21:24:44.018Z,101944.25
2022-12-26T21:27:12.167Z,101966.31
2022-12-26T21:29:40.531Z,101951.34
2022-12-26T21:32:08.966Z,101946.84
2022-12-26T21:34:37.038Z,101946.13
2022-12-26T21:37:22.753Z,101960.28
2022-12-26T21:39:55.293Z,101961.22
2022-12-26T21:42:25.757Z,101960.50
2022-12-26T21:44:57.506Z,101966.69
2022-12-26T21:47:27.478Z,101977.34
2022-12-26T21:49:57.044Z,101966.16
2022-12-26T21:52:25.058Z,101973.00
2022-12-26T21:55:12.128Z,101977.56
2022-12-26T21:57:43.220Z,101969.22
2022-12-26T22:00:12.188Z,101989.41
2022-12-26T22:02:57.839Z,101980.81
2022-12-26T22:05:29.642Z,101998.34
2022-12-26T22:08:00.346Z,101996.75
2022-12-26T22:10:49.698Z,101996.66
2022-12-26T22:13:18.147Z,102002.94
2022-12-26T22:16:07.204Z,101995.28
2022-12-26T22:18:41.022Z,102004.94
2022-12-26T22:21:10.361Z,102005.91
2022-12-26T22:23:39.390Z,102012.94
2022-12-26T22:26:13.672Z,102010.38
2022-12-26T22:28:42.869Z,102009.44
2022-12-26T22:31:20.046Z,102004.34
2022-12-26T22:33:48.227Z,102016.69
2022-12-26T22:36:16.193Z,102027.41
2022-12-26T22:38:44.170Z,102012.41
2022-12-26T22:41:13.628Z,102018.44
2022-12-26T22:43:43.345Z,102013.16
2022-12-26T22:46:11.848Z,102024.56
2022-12-26T22:48:43.024Z,101997.50
2022-12-26T22:51:19.575Z,102019.66
2022-12-26T22:53:48.392Z,102021.22
2022-12-26T22:56:18.169Z,102032.69
2022-12-26T22:58:50.927Z,102030.00
2022-12-26T23:01:21.027Z,102020.41
2022-12-26T23:03:49.358Z,102043.44
2022-12-26T23:06:20.223Z,102041.34
2022-12-26T23:08:54.379Z,102020.34
2022-12-26T23:11:30.289Z,102025.94
2022-12-26T23:14:02.146Z,102043.38
2022-12-26T23:16:35.585Z,102041.50
2022-12-26T23:19:27.577Z,102045.03
2022-12-26T23:21:58.966Z,102032.78
2022-12-26T23:24:34.027Z,102030.38
2022-12-26T23:27:20.800Z,102054.03
2022-12-26T23:30:07.237Z,102047.00
2022-12-26T23:32:39.703Z,102041.63
2022-12-26T23:35:09.603Z,102038.06
2022-12-26T23:37:39.923Z,102038.06
2022-12-26T23:40:09.521Z,102039.81
2022-12-26T23:42:39.403Z,102042.22
2022-12-26T23:45:08.496Z,102064.31
2022-12-26T23:47:38.548Z,102055.78
2022-12-26T23:50:11.927Z,102051.31
2022-12-26T23:52:40.535Z,102052.16
2022-12-26T23:55:09.376Z,102061.78
2022-12-26T23:57:38.871Z,102064.66
